sensor_id;sensor_type;location;lat;lon;timestamp;P1;durP1;ratioP1;P2;durP2;ratioP2
14247;SDS011;7208;49.826;6.004;2022-07-09T00:00:05;3.17;;;1.90;;
14247;SDS011;7208;49.826;6.004;2022-07-09T00:02:31;2.10;;;1.90;;
14247;SDS011;7208;49.826;6.004;2022-07-09T00:04:59;3.90;;;2.13;;
14247;SDS011;7208;49.826;6.004;2022-07-09T00:07:25;3.57;;;2.20;;
14247;SDS011;7208;49.826;6.004;2022-07-09T00:09:51;4.03;;;2.10;;
14247;SDS011;7208;49.826;6.004;2022-07-09T00:12:17;3.07;;;2.20;;
14247;SDS011;7208;49.826;6.004;2022-07-09T00:14:43;2.50;;;2.10;;
14247;SDS011;7208;49.826;6.004;2022-07-09T00:17:09;3.63;;;1.90;;
14247;SDS011;7208;49.826;6.004;2022-07-09T00:19:35;2.27;;;1.87;;
14247;SDS011;7208;49.826;6.004;2022-07-09T00:22:01;3.43;;;1.70;;
14247;SDS011;7208;49.826;6.004;2022-07-09T00:24:27;3.90;;;2.10;;
14247;SDS011;7208;49.826;6.004;2022-07-09T00:26:52;2.77;;;1.90;;
14247;SDS011;7208;49.826;6.004;2022-07-09T00:29:18;1.83;;;1.70;;
14247;SDS011;7208;49.826;6.004;2022-07-09T00:31:44;1.90;;;1.80;;
14247;SDS011;7208;49.826;6.004;2022-07-09T00:34:11;2.10;;;1.90;;
14247;SDS011;7208;49.826;6.004;2022-07-09T00:36:37;2.07;;;1.63;;
14247;SDS011;7208;49.826;6.004;2022-07-09T00:39:03;2.40;;;1.80;;
14247;SDS011;7208;49.826;6.004;2022-07-09T00:41:28;2.93;;;1.70;;
14247;SDS011;7208;49.826;6.004;2022-07-09T00:43:54;2.93;;;2.17;;
14247;SDS011;7208;49.826;6.004;2022-07-09T00:46:20;4.13;;;2.37;;
14247;SDS011;7208;49.826;6.004;2022-07-09T00:48:45;4.13;;;1.90;;
14247;SDS011;7208;49.826;6.004;2022-07-09T00:51:11;2.50;;;2.00;;
14247;SDS011;7208;49.826;6.004;2022-07-09T00:53:38;2.50;;;2.07;;
14247;SDS011;7208;49.826;6.004;2022-07-09T00:56:05;2.20;;;2.00;;
14247;SDS011;7208;49.826;6.004;2022-07-09T00:58:31;3.67;;;1.80;;
14247;SDS011;7208;49.826;6.004;2022-07-09T01:00:58;1.97;;;1.53;;
14247;SDS011;7208;49.826;6.004;2022-07-09T01:03:24;2.90;;;2.20;;
14247;SDS011;7208;49.826;6.004;2022-07-09T01:05:49;2.47;;;2.27;;
14247;SDS011;7208;49.826;6.004;2022-07-09T01:08:15;3.20;;;2.00;;
14247;SDS011;7208;49.826;6.004;2022-07-09T01:10:41;3.03;;;2.10;;
14247;SDS011;7208;49.826;6.004;2022-07-09T01:13:07;6.43;;;2.67;;
14247;SDS011;7208;49.826;6.004;2022-07-09T01:15:33;2.27;;;2.07;;
14247;SDS011;7208;49.826;6.004;2022-07-09T01:17:59;2.60;;;2.40;;
14247;SDS011;7208;49.826;6.004;2022-07-09T01:20:28;3.47;;;2.47;;
14247;SDS011;7208;49.826;6.004;2022-07-09T01:22:54;2.47;;;2.27;;
14247;SDS011;7208;49.826;6.004;2022-07-09T01:25:24;3.03;;;2.37;;
14247;SDS011;7208;49.826;6.004;2022-07-09T01:27:56;2.90;;;2.23;;
14247;SDS011;7208;49.826;6.004;2022-07-09T01:30:23;2.57;;;2.37;;
14247;SDS011;7208;49.826;6.004;2022-07-09T01:32:51;2.30;;;2.10;;
14247;SDS011;7208;49.826;6.004;2022-07-09T01:35:17;3.23;;;2.97;;
14247;SDS011;7208;49.826;6.004;2022-07-09T01:37:43;2.53;;;2.33;;
14247;SDS011;7208;49.826;6.004;2022-07-09T01:40:09;3.00;;;2.70;;
14247;SDS011;7208;49.826;6.004;2022-07-09T01:42:35;2.70;;;2.50;;
14247;SDS011;7208;49.826;6.004;2022-07-09T01:45:01;3.17;;;2.80;;
14247;SDS011;7208;49.826;6.004;2022-07-09T01:47:26;3.50;;;3.20;;
14247;SDS011;7208;49.826;6.004;2022-07-09T01:49:52;6.30;;;3.70;;
14247;SDS011;7208;49.826;6.004;2022-07-09T01:52:18;3.53;;;3.03;;
14247;SDS011;7208;49.826;6.004;2022-07-09T01:54:44;4.33;;;2.73;;
14247;SDS011;7208;49.826;6.004;2022-07-09T01:57:10;3.37;;;2.90;;
14247;SDS011;7208;49.826;6.004;2022-07-09T01:59:35;2.77;;;2.57;;
14247;SDS011;7208;49.826;6.004;2022-07-09T02:02:01;2.70;;;2.40;;
14247;SDS011;7208;49.826;6.004;2022-07-09T02:04:27;3.20;;;2.37;;
14247;SDS011;7208;49.826;6.004;2022-07-09T02:06:53;3.97;;;2.60;;
14247;SDS011;7208;49.826;6.004;2022-07-09T02:09:18;2.60;;;2.40;;
14247;SDS011;7208;49.826;6.004;2022-07-09T02:11:44;3.53;;;2.40;;
14247;SDS011;7208;49.826;6.004;2022-07-09T02:14:10;3.40;;;3.10;;
14247;SDS011;7208;49.826;6.004;2022-07-09T02:16:36;3.77;;;2.37;;
14247;SDS011;7208;49.826;6.004;2022-07-09T02:19:01;6.03;;;2.50;;
14247;SDS011;7208;49.826;6.004;2022-07-09T02:21:27;3.40;;;2.60;;
14247;SDS011;7208;49.826;6.004;2022-07-09T02:23:52;3.93;;;3.10;;
14247;SDS011;7208;49.826;6.004;2022-07-09T02:26:23;3.53;;;3.23;;
14247;SDS011;7208;49.826;6.004;2022-07-09T02:28:50;4.67;;;3.17;;
14247;SDS011;7208;49.826;6.004;2022-07-09T02:31:17;4.23;;;2.80;;
14247;SDS011;7208;49.826;6.004;2022-07-09T02:33:42;3.10;;;2.80;;
14247;SDS011;7208;49.826;6.004;2022-07-09T02:36:09;3.00;;;2.80;;
14247;SDS011;7208;49.826;6.004;2022-07-09T02:38:34;4.20;;;2.73;;
14247;SDS011;7208;49.826;6.004;2022-07-09T02:41:00;2.93;;;2.77;;
14247;SDS011;7208;49.826;6.004;2022-07-09T02:43:26;4.87;;;3.20;;
14247;SDS011;7208;49.826;6.004;2022-07-09T02:45:52;3.00;;;2.70;;
14247;SDS011;7208;49.826;6.004;2022-07-09T02:48:20;2.83;;;2.63;;
14247;SDS011;7208;49.826;6.004;2022-07-09T02:50:46;3.87;;;2.70;;
14247;SDS011;7208;49.826;6.004;2022-07-09T02:53:14;4.93;;;2.73;;
14247;SDS011;7208;49.826;6.004;2022-07-09T02:55:39;5.87;;;2.70;;
14247;SDS011;7208;49.826;6.004;2022-07-09T02:58:05;6.03;;;3.03;;
14247;SDS011;7208;49.826;6.004;2022-07-09T03:00:31;3.93;;;3.03;;
14247;SDS011;7208;49.826;6.004;2022-07-09T03:02:56;4.10;;;2.60;;
14247;SDS011;7208;49.826;6.004;2022-07-09T03:05:22;4.03;;;2.53;;
14247;SDS011;7208;49.826;6.004;2022-07-09T03:07:48;2.87;;;2.40;;
14247;SDS011;7208;49.826;6.004;2022-07-09T03:10:13;3.03;;;2.70;;
14247;SDS011;7208;49.826;6.004;2022-07-09T03:12:39;3.93;;;2.93;;
14247;SDS011;7208;49.826;6.004;2022-07-09T03:15:06;2.80;;;2.60;;
14247;SDS011;7208;49.826;6.004;2022-07-09T03:17:32;2.87;;;2.50;;
14247;SDS011;7208;49.826;6.004;2022-07-09T03:19:58;3.97;;;2.67;;
14247;SDS011;7208;49.826;6.004;2022-07-09T03:22:23;3.33;;;2.77;;
14247;SDS011;7208;49.826;6.004;2022-07-09T03:24:49;5.33;;;2.83;;
14247;SDS011;7208;49.826;6.004;2022-07-09T03:27:16;3.63;;;2.70;;
14247;SDS011;7208;49.826;6.004;2022-07-09T03:29:41;3.80;;;3.07;;
14247;SDS011;7208;49.826;6.004;2022-07-09T03:32:07;5.10;;;2.97;;
14247;SDS011;7208;49.826;6.004;2022-07-09T03:34:33;3.90;;;3.00;;
14247;SDS011;7208;49.826;6.004;2022-07-09T03:36:58;3.37;;;2.93;;
14247;SDS011;7208;49.826;6.004;2022-07-09T03:39:24;3.97;;;2.73;;
14247;SDS011;7208;49.826;6.004;2022-07-09T03:41:50;5.27;;;3.13;;
14247;SDS011;7208;49.826;6.004;2022-07-09T03:44:16;4.77;;;2.87;;
14247;SDS011;7208;49.826;6.004;2022-07-09T03:46:42;3.77;;;2.87;;
14247;SDS011;7208;49.826;6.004;2022-07-09T03:49:08;2.53;;;2.33;;
14247;SDS011;7208;49.826;6.004;2022-07-09T03:51:34;4.83;;;3.20;;
14247;SDS011;7208;49.826;6.004;2022-07-09T03:54:00;4.00;;;3.03;;
14247;SDS011;7208;49.826;6.004;2022-07-09T03:56:26;4.53;;;2.83;;
14247;SDS011;7208;49.826;6.004;2022-07-09T03:58:51;5.97;;;3.10;;
14247;SDS011;7208;49.826;6.004;2022-07-09T04:01:17;6.40;;;3.10;;
14247;SDS011;7208;49.826;6.004;2022-07-09T04:03:43;4.23;;;3.20;;
14247;SDS011;7208;49.826;6.004;2022-07-09T04:06:08;3.73;;;3.13;;
14247;SDS011;7208;49.826;6.004;2022-07-09T04:08:34;4.00;;;3.60;;
14247;SDS011;7208;49.826;6.004;2022-07-09T04:11:00;3.63;;;2.87;;
14247;SDS011;7208;49.826;6.004;2022-07-09T04:13:26;3.50;;;3.20;;
14247;SDS011;7208;49.826;6.004;2022-07-09T04:15:52;3.30;;;3.10;;
14247;SDS011;7208;49.826;6.004;2022-07-09T04:18:18;3.70;;;3.37;;
14247;SDS011;7208;49.826;6.004;2022-07-09T04:20:44;3.23;;;3.00;;
14247;SDS011;7208;49.826;6.004;2022-07-09T04:23:10;4.43;;;3.20;;
14247;SDS011;7208;49.826;6.004;2022-07-09T04:25:36;3.47;;;2.80;;
14247;SDS011;7208;49.826;6.004;2022-07-09T04:28:01;3.67;;;3.20;;
14247;SDS011;7208;49.826;6.004;2022-07-09T04:30:27;3.93;;;3.40;;
14247;SDS011;7208;49.826;6.004;2022-07-09T04:32:53;5.73;;;3.40;;
14247;SDS011;7208;49.826;6.004;2022-07-09T04:35:19;3.47;;;3.00;;
14247;SDS011;7208;49.826;6.004;2022-07-09T04:37:45;3.50;;;3.20;;
14247;SDS011;7208;49.826;6.004;2022-07-09T04:40:10;5.73;;;3.10;;
14247;SDS011;7208;49.826;6.004;2022-07-09T04:42:37;5.93;;;3.30;;
14247;SDS011;7208;49.826;6.004;2022-07-09T04:45:02;3.60;;;2.97;;
14247;SDS011;7208;49.826;6.004;2022-07-09T04:47:28;6.13;;;3.63;;
14247;SDS011;7208;49.826;6.004;2022-07-09T04:49:54;3.73;;;3.43;;
14247;SDS011;7208;49.826;6.004;2022-07-09T04:52:20;3.53;;;2.93;;
14247;SDS011;7208;49.826;6.004;2022-07-09T04:54:46;4.97;;;3.50;;
14247;SDS011;7208;49.826;6.004;2022-07-09T04:57:12;3.63;;;3.30;;
14247;SDS011;7208;49.826;6.004;2022-07-09T04:59:38;3.80;;;3.33;;
14247;SDS011;7208;49.826;6.004;2022-07-09T05:02:04;3.37;;;3.07;;
14247;SDS011;7208;49.826;6.004;2022-07-09T05:04:30;6.47;;;3.33;;
14247;SDS011;7208;49.826;6.004;2022-07-09T05:06:56;3.40;;;2.53;;
14247;SDS011;7208;49.826;6.004;2022-07-09T05:09:21;4.00;;;3.10;;
14247;SDS011;7208;49.826;6.004;2022-07-09T05:11:47;7.63;;;3.37;;
14247;SDS011;7208;49.826;6.004;2022-07-09T05:14:13;3.50;;;3.20;;
14247;SDS011;7208;49.826;6.004;2022-07-09T05:16:39;3.80;;;3.33;;
14247;SDS011;7208;49.826;6.004;2022-07-09T05:19:10;3.27;;;3.07;;
14247;SDS011;7208;49.826;6.004;2022-07-09T05:21:38;5.37;;;3.33;;
14247;SDS011;7208;49.826;6.004;2022-07-09T05:24:06;3.30;;;3.10;;
14247;SDS011;7208;49.826;6.004;2022-07-09T05:26:33;3.37;;;2.70;;
14247;SDS011;7208;49.826;6.004;2022-07-09T05:28:59;3.93;;;2.90;;
14247;SDS011;7208;49.826;6.004;2022-07-09T05:31:25;5.13;;;2.93;;
14247;SDS011;7208;49.826;6.004;2022-07-09T05:33:51;3.63;;;3.33;;
14247;SDS011;7208;49.826;6.004;2022-07-09T05:36:17;3.57;;;2.70;;
14247;SDS011;7208;49.826;6.004;2022-07-09T05:38:43;5.33;;;4.67;;
14247;SDS011;7208;49.826;6.004;2022-07-09T05:41:09;3.13;;;2.57;;
14247;SDS011;7208;49.826;6.004;2022-07-09T05:43:35;2.87;;;2.57;;
14247;SDS011;7208;49.826;6.004;2022-07-09T05:46:02;3.33;;;2.57;;
14247;SDS011;7208;49.826;6.004;2022-07-09T05:48:27;4.10;;;3.00;;
14247;SDS011;7208;49.826;6.004;2022-07-09T05:50:53;3.73;;;2.63;;
14247;SDS011;7208;49.826;6.004;2022-07-09T05:53:20;2.77;;;2.50;;
14247;SDS011;7208;49.826;6.004;2022-07-09T05:55:46;3.00;;;2.50;;
14247;SDS011;7208;49.826;6.004;2022-07-09T05:58:12;2.77;;;2.57;;
14247;SDS011;7208;49.826;6.004;2022-07-09T06:00:38;2.30;;;2.10;;
14247;SDS011;7208;49.826;6.004;2022-07-09T06:03:03;3.77;;;2.57;;
14247;SDS011;7208;49.826;6.004;2022-07-09T06:05:29;3.67;;;2.70;;
14247;SDS011;7208;49.826;6.004;2022-07-09T06:07:55;2.73;;;2.53;;
14247;SDS011;7208;49.826;6.004;2022-07-09T06:10:21;4.53;;;3.10;;
14247;SDS011;7208;49.826;6.004;2022-07-09T06:12:47;3.00;;;2.70;;
14247;SDS011;7208;49.826;6.004;2022-07-09T06:15:13;3.80;;;2.80;;
14247;SDS011;7208;49.826;6.004;2022-07-09T06:17:39;3.20;;;2.90;;
14247;SDS011;7208;49.826;6.004;2022-07-09T06:20:05;2.97;;;2.50;;
14247;SDS011;7208;49.826;6.004;2022-07-09T06:22:31;3.03;;;2.73;;
14247;SDS011;7208;49.826;6.004;2022-07-09T06:24:57;3.10;;;2.90;;
14247;SDS011;7208;49.826;6.004;2022-07-09T06:27:23;3.63;;;3.07;;
14247;SDS011;7208;49.826;6.004;2022-07-09T06:29:49;4.53;;;3.27;;
14247;SDS011;7208;49.826;6.004;2022-07-09T06:32:15;3.40;;;3.10;;
14247;SDS011;7208;49.826;6.004;2022-07-09T06:34:41;4.50;;;3.00;;
14247;SDS011;7208;49.826;6.004;2022-07-09T06:37:06;2.80;;;2.60;;
14247;SDS011;7208;49.826;6.004;2022-07-09T06:39:33;3.47;;;2.60;;
14247;SDS011;7208;49.826;6.004;2022-07-09T06:42:14;2.93;;;2.53;;
14247;SDS011;7208;49.826;6.004;2022-07-09T06:44:43;5.17;;;2.77;;
14247;SDS011;7208;49.826;6.004;2022-07-09T06:47:10;4.60;;;2.50;;
14247;SDS011;7208;49.826;6.004;2022-07-09T06:49:36;3.47;;;2.50;;
14247;SDS011;7208;49.826;6.004;2022-07-09T06:52:02;4.73;;;2.50;;
14247;SDS011;7208;49.826;6.004;2022-07-09T06:54:29;2.67;;;2.47;;
14247;SDS011;7208;49.826;6.004;2022-07-09T06:56:54;2.83;;;2.63;;
14247;SDS011;7208;49.826;6.004;2022-07-09T06:59:22;4.07;;;2.27;;
14247;SDS011;7208;49.826;6.004;2022-07-09T07:01:51;2.13;;;1.97;;
14247;SDS011;7208;49.826;6.004;2022-07-09T07:04:17;2.83;;;1.50;;
14247;SDS011;7208;49.826;6.004;2022-07-09T07:06:43;3.97;;;2.50;;
14247;SDS011;7208;49.826;6.004;2022-07-09T07:09:10;2.37;;;1.97;;
14247;SDS011;7208;49.826;6.004;2022-07-09T07:11:36;2.77;;;2.17;;
14247;SDS011;7208;49.826;6.004;2022-07-09T07:14:02;2.30;;;1.23;;
14247;SDS011;7208;49.826;6.004;2022-07-09T07:16:27;2.33;;;1.50;;
14247;SDS011;7208;49.826;6.004;2022-07-09T07:18:53;2.33;;;2.00;;
14247;SDS011;7208;49.826;6.004;2022-07-09T07:21:19;2.03;;;1.23;;
14247;SDS011;7208;49.826;6.004;2022-07-09T07:23:45;2.00;;;1.40;;
14247;SDS011;7208;49.826;6.004;2022-07-09T07:26:11;2.10;;;1.60;;
14247;SDS011;7208;49.826;6.004;2022-07-09T07:28:36;3.30;;;2.10;;
14247;SDS011;7208;49.826;6.004;2022-07-09T07:31:02;3.23;;;1.60;;
14247;SDS011;7208;49.826;6.004;2022-07-09T07:33:28;3.33;;;1.63;;
14247;SDS011;7208;49.826;6.004;2022-07-09T07:35:53;2.90;;;1.60;;
14247;SDS011;7208;49.826;6.004;2022-07-09T07:38:19;2.30;;;1.97;;
14247;SDS011;7208;49.826;6.004;2022-07-09T07:40:45;1.93;;;1.73;;
14247;SDS011;7208;49.826;6.004;2022-07-09T07:43:10;2.30;;;1.80;;
14247;SDS011;7208;49.826;6.004;2022-07-09T07:45:36;2.47;;;1.30;;
14247;SDS011;7208;49.826;6.004;2022-07-09T07:48:02;2.07;;;1.33;;
14247;SDS011;7208;49.826;6.004;2022-07-09T07:50:28;1.90;;;1.50;;
14247;SDS011;7208;49.826;6.004;2022-07-09T07:52:54;2.27;;;1.23;;
14247;SDS011;7208;49.826;6.004;2022-07-09T07:55:20;2.37;;;1.50;;
14247;SDS011;7208;49.826;6.004;2022-07-09T07:57:47;1.50;;;1.17;;
14247;SDS011;7208;49.826;6.004;2022-07-09T08:00:13;2.60;;;1.60;;
14247;SDS011;7208;49.826;6.004;2022-07-09T08:02:39;1.50;;;1.33;;
14247;SDS011;7208;49.826;6.004;2022-07-09T08:05:05;1.20;;;0.97;;
14247;SDS011;7208;49.826;6.004;2022-07-09T08:07:31;2.60;;;1.40;;
14247;SDS011;7208;49.826;6.004;2022-07-09T08:09:57;1.50;;;1.40;;
14247;SDS011;7208;49.826;6.004;2022-07-09T08:12:23;2.60;;;1.10;;
14247;SDS011;7208;49.826;6.004;2022-07-09T08:14:49;4.47;;;1.20;;
14247;SDS011;7208;49.826;6.004;2022-07-09T08:17:15;2.47;;;0.83;;
14247;SDS011;7208;49.826;6.004;2022-07-09T08:19:40;3.23;;;1.03;;
14247;SDS011;7208;49.826;6.004;2022-07-09T08:22:06;1.60;;;0.90;;
14247;SDS011;7208;49.826;6.004;2022-07-09T08:24:32;1.27;;;0.70;;
14247;SDS011;7208;49.826;6.004;2022-07-09T08:26:57;2.23;;;0.80;;
14247;SDS011;7208;49.826;6.004;2022-07-09T08:29:24;1.13;;;0.80;;
14247;SDS011;7208;49.826;6.004;2022-07-09T08:31:50;1.27;;;0.70;;
14247;SDS011;7208;49.826;6.004;2022-07-09T08:34:15;0.90;;;0.90;;
14247;SDS011;7208;49.826;6.004;2022-07-09T08:36:41;0.93;;;0.80;;
14247;SDS011;7208;49.826;6.004;2022-07-09T08:39:07;0.90;;;0.80;;
14247;SDS011;7208;49.826;6.004;2022-07-09T08:41:33;1.90;;;0.80;;
14247;SDS011;7208;49.826;6.004;2022-07-09T08:43:58;1.37;;;0.80;;
14247;SDS011;7208;49.826;6.004;2022-07-09T08:46:27;0.97;;;0.60;;
14247;SDS011;7208;49.826;6.004;2022-07-09T08:48:53;0.60;;;0.50;;
14247;SDS011;7208;49.826;6.004;2022-07-09T08:51:20;1.33;;;0.70;;
14247;SDS011;7208;49.826;6.004;2022-07-09T08:53:47;1.10;;;0.70;;
14247;SDS011;7208;49.826;6.004;2022-07-09T08:56:13;0.60;;;0.60;;
14247;SDS011;7208;49.826;6.004;2022-07-09T08:58:38;0.40;;;0.40;;
14247;SDS011;7208;49.826;6.004;2022-07-09T09:01:04;2.37;;;0.63;;
14247;SDS011;7208;49.826;6.004;2022-07-09T09:03:31;0.63;;;0.50;;
14247;SDS011;7208;49.826;6.004;2022-07-09T09:06:01;1.13;;;0.60;;
14247;SDS011;7208;49.826;6.004;2022-07-09T09:08:34;2.90;;;0.67;;
14247;SDS011;7208;49.826;6.004;2022-07-09T09:11:02;0.90;;;0.47;;
14247;SDS011;7208;49.826;6.004;2022-07-09T09:13:29;1.57;;;0.60;;
14247;SDS011;7208;49.826;6.004;2022-07-09T09:16:04;0.50;;;0.50;;
14247;SDS011;7208;49.826;6.004;2022-07-09T09:18:31;1.17;;;0.50;;
14247;SDS011;7208;49.826;6.004;2022-07-09T09:21:03;0.70;;;0.70;;
14247;SDS011;7208;49.826;6.004;2022-07-09T09:23:53;2.10;;;0.83;;
14247;SDS011;7208;49.826;6.004;2022-07-09T09:26:22;0.83;;;0.70;;
14247;SDS011;7208;49.826;6.004;2022-07-09T09:28:53;0.63;;;0.50;;
14247;SDS011;7208;49.826;6.004;2022-07-09T09:31:20;1.10;;;1.00;;
14247;SDS011;7208;49.826;6.004;2022-07-09T09:33:54;1.03;;;0.70;;
14247;SDS011;7208;49.826;6.004;2022-07-09T09:36:31;1.10;;;0.83;;
14247;SDS011;7208;49.826;6.004;2022-07-09T09:44:22;0.73;;;0.57;;
14247;SDS011;7208;49.826;6.004;2022-07-09T09:46:52;1.63;;;0.60;;
14247;SDS011;7208;49.826;6.004;2022-07-09T09:49:18;0.97;;;0.67;;
14247;SDS011;7208;49.826;6.004;2022-07-09T09:52:04;0.60;;;0.60;;
14247;SDS011;7208;49.826;6.004;2022-07-09T09:54:34;0.77;;;0.60;;
14247;SDS011;7208;49.826;6.004;2022-07-09T09:57:06;1.60;;;0.60;;
14247;SDS011;7208;49.826;6.004;2022-07-09T09:59:36;0.80;;;0.80;;
14247;SDS011;7208;49.826;6.004;2022-07-09T10:02:06;1.33;;;0.70;;
14247;SDS011;7208;49.826;6.004;2022-07-09T10:04:41;0.70;;;0.70;;
14247;SDS011;7208;49.826;6.004;2022-07-09T10:07:09;0.70;;;0.60;;
14247;SDS011;7208;49.826;6.004;2022-07-09T10:09:37;0.60;;;0.60;;
14247;SDS011;7208;49.826;6.004;2022-07-09T10:12:03;1.00;;;0.70;;
14247;SDS011;7208;49.826;6.004;2022-07-09T10:14:30;1.73;;;0.80;;
14247;SDS011;7208;49.826;6.004;2022-07-09T10:17:19;0.87;;;0.60;;
14247;SDS011;7208;49.826;6.004;2022-07-09T10:19:57;0.60;;;0.40;;
14247;SDS011;7208;49.826;6.004;2022-07-09T10:22:38;0.67;;;0.67;;
14247;SDS011;7208;49.826;6.004;2022-07-09T10:25:05;0.47;;;0.47;;
14247;SDS011;7208;49.826;6.004;2022-07-09T10:27:44;1.67;;;0.70;;
14247;SDS011;7208;49.826;6.004;2022-07-09T10:30:21;0.60;;;0.60;;
14247;SDS011;7208;49.826;6.004;2022-07-09T10:38:06;1.00;;;0.70;;
14247;SDS011;7208;49.826;6.004;2022-07-09T10:40:39;0.60;;;0.60;;
14247;SDS011;7208;49.826;6.004;2022-07-09T10:43:12;0.50;;;0.50;;
14247;SDS011;7208;49.826;6.004;2022-07-09T10:45:41;0.83;;;0.50;;
14247;SDS011;7208;49.826;6.004;2022-07-09T10:48:10;0.60;;;0.60;;
14247;SDS011;7208;49.826;6.004;2022-07-09T10:50:38;1.77;;;0.77;;
14247;SDS011;7208;49.826;6.004;2022-07-09T10:53:05;0.73;;;0.70;;
14247;SDS011;7208;49.826;6.004;2022-07-09T10:55:31;1.30;;;0.83;;
14247;SDS011;7208;49.826;6.004;2022-07-09T10:57:57;1.93;;;0.80;;
14247;SDS011;7208;49.826;6.004;2022-07-09T11:00:24;1.77;;;0.80;;
14247;SDS011;7208;49.826;6.004;2022-07-09T11:02:55;0.60;;;0.60;;
14247;SDS011;7208;49.826;6.004;2022-07-09T11:05:27;1.23;;;0.70;;
14247;SDS011;7208;49.826;6.004;2022-07-09T11:10:35;0.50;;;0.50;;
14247;SDS011;7208;49.826;6.004;2022-07-09T11:13:03;0.60;;;0.60;;
14247;SDS011;7208;49.826;6.004;2022-07-09T11:15:31;0.60;;;0.60;;
14247;SDS011;7208;49.826;6.004;2022-07-09T11:20:28;0.60;;;0.60;;
14247;SDS011;7208;49.826;6.004;2022-07-09T11:22:55;0.88;;;0.50;;
14247;SDS011;7208;49.826;6.004;2022-07-09T11:25:26;3.72;;;0.65;;
14247;SDS011;7208;49.826;6.004;2022-07-09T11:27:56;0.70;;;0.60;;
14247;SDS011;7208;49.826;6.004;2022-07-09T11:30:22;1.00;;;0.83;;
14247;SDS011;7208;49.826;6.004;2022-07-09T11:32:49;0.80;;;0.60;;
14247;SDS011;7208;49.826;6.004;2022-07-09T11:37:57;0.50;;;0.50;;
14247;SDS011;7208;49.826;6.004;2022-07-09T11:40:24;0.60;;;0.60;;
14247;SDS011;7208;49.826;6.004;2022-07-09T11:42:50;1.27;;;0.70;;
14247;SDS011;7208;49.826;6.004;2022-07-09T11:45:23;0.70;;;0.57;;
14247;SDS011;7208;49.826;6.004;2022-07-09T11:47:50;0.40;;;0.40;;
14247;SDS011;7208;49.826;6.004;2022-07-09T11:50:27;0.60;;;0.60;;
14247;SDS011;7208;49.826;6.004;2022-07-09T11:52:53;0.67;;;0.60;;
14247;SDS011;7208;49.826;6.004;2022-07-09T11:55:20;0.60;;;0.60;;
14247;SDS011;7208;49.826;6.004;2022-07-09T11:57:50;0.70;;;0.70;;
14247;SDS011;7208;49.826;6.004;2022-07-09T12:00:29;1.15;;;0.90;;
14247;SDS011;7208;49.826;6.004;2022-07-09T12:02:57;0.88;;;0.70;;
14247;SDS011;7208;49.826;6.004;2022-07-09T12:07:56;1.00;;;0.60;;
14247;SDS011;7208;49.826;6.004;2022-07-09T12:10:27;1.27;;;0.80;;
14247;SDS011;7208;49.826;6.004;2022-07-09T12:12:54;1.20;;;0.50;;
14247;SDS011;7208;49.826;6.004;2022-07-09T12:15:21;1.05;;;0.90;;
14247;SDS011;7208;49.826;6.004;2022-07-09T12:17:50;0.77;;;0.70;;
14247;SDS011;7208;49.826;6.004;2022-07-09T12:20:17;0.70;;;0.70;;
14247;SDS011;7208;49.826;6.004;2022-07-09T12:22:43;1.38;;;0.68;;
14247;SDS011;7208;49.826;6.004;2022-07-09T12:25:09;0.87;;;0.70;;
14247;SDS011;7208;49.826;6.004;2022-07-09T12:27:35;0.93;;;0.70;;
14247;SDS011;7208;49.826;6.004;2022-07-09T12:30:00;1.00;;;0.93;;
14247;SDS011;7208;49.826;6.004;2022-07-09T12:32:26;2.00;;;0.80;;
14247;SDS011;7208;49.826;6.004;2022-07-09T12:34:52;1.38;;;0.80;;
14247;SDS011;7208;49.826;6.004;2022-07-09T12:37:18;0.70;;;0.70;;
14247;SDS011;7208;49.826;6.004;2022-07-09T12:39:43;2.27;;;0.80;;
14247;SDS011;7208;49.826;6.004;2022-07-09T12:42:09;1.00;;;0.90;;
14247;SDS011;7208;49.826;6.004;2022-07-09T12:44:35;0.80;;;0.80;;
14247;SDS011;7208;49.826;6.004;2022-07-09T12:47:01;1.88;;;0.80;;
14247;SDS011;7208;49.826;6.004;2022-07-09T12:49:27;1.00;;;1.00;;
14247;SDS011;7208;49.826;6.004;2022-07-09T12:51:52;2.58;;;0.77;;
14247;SDS011;7208;49.826;6.004;2022-07-09T12:54:18;1.20;;;0.70;;
14247;SDS011;7208;49.826;6.004;2022-07-09T12:56:44;0.70;;;0.70;;
14247;SDS011;7208;49.826;6.004;2022-07-09T12:59:09;1.48;;;0.90;;
14247;SDS011;7208;49.826;6.004;2022-07-09T13:01:35;0.75;;;0.70;;
14247;SDS011;7208;49.826;6.004;2022-07-09T13:04:01;0.70;;;0.60;;
14247;SDS011;7208;49.826;6.004;2022-07-09T13:06:26;0.77;;;0.77;;
14247;SDS011;7208;49.826;6.004;2022-07-09T13:08:59;1.15;;;0.73;;
14247;SDS011;7208;49.826;6.004;2022-07-09T13:11:26;1.10;;;0.70;;
14247;SDS011;7208;49.826;6.004;2022-07-09T13:13:52;0.80;;;0.80;;
14247;SDS011;7208;49.826;6.004;2022-07-09T13:16:18;1.20;;;1.10;;
14247;SDS011;7208;49.826;6.004;2022-07-09T13:18:44;0.82;;;0.70;;
14247;SDS011;7208;49.826;6.004;2022-07-09T13:21:10;0.70;;;0.70;;
14247;SDS011;7208;49.826;6.004;2022-07-09T13:23:35;1.67;;;1.00;;
14247;SDS011;7208;49.826;6.004;2022-07-09T13:26:02;0.90;;;0.90;;
14247;SDS011;7208;49.826;6.004;2022-07-09T13:28:28;1.85;;;0.70;;
14247;SDS011;7208;49.826;6.004;2022-07-09T13:30:54;0.80;;;0.80;;
14247;SDS011;7208;49.826;6.004;2022-07-09T13:33:19;1.97;;;1.00;;
14247;SDS011;7208;49.826;6.004;2022-07-09T13:35:45;1.43;;;1.07;;
14247;SDS011;7208;49.826;6.004;2022-07-09T13:38:11;1.43;;;0.93;;
14247;SDS011;7208;49.826;6.004;2022-07-09T13:40:36;0.90;;;0.68;;
14247;SDS011;7208;49.826;6.004;2022-07-09T13:43:02;1.27;;;1.00;;
14247;SDS011;7208;49.826;6.004;2022-07-09T13:45:28;3.13;;;0.80;;
14247;SDS011;7208;49.826;6.004;2022-07-09T13:47:54;1.30;;;0.88;;
14247;SDS011;7208;49.826;6.004;2022-07-09T13:50:20;1.48;;;1.10;;
14247;SDS011;7208;49.826;6.004;2022-07-09T13:52:46;1.42;;;0.82;;
14247;SDS011;7208;49.826;6.004;2022-07-09T13:55:13;1.15;;;0.90;;
14247;SDS011;7208;49.826;6.004;2022-07-09T13:57:39;2.40;;;0.80;;
14247;SDS011;7208;49.826;6.004;2022-07-09T14:00:05;1.00;;;0.75;;
14247;SDS011;7208;49.826;6.004;2022-07-09T14:02:32;0.80;;;0.80;;
14247;SDS011;7208;49.826;6.004;2022-07-09T14:04:58;1.80;;;1.00;;
14247;SDS011;7208;49.826;6.004;2022-07-09T14:07:24;1.13;;;0.93;;
14247;SDS011;7208;49.826;6.004;2022-07-09T14:09:50;2.17;;;0.90;;
14247;SDS011;7208;49.826;6.004;2022-07-09T14:12:16;2.15;;;1.00;;
14247;SDS011;7208;49.826;6.004;2022-07-09T14:14:42;1.40;;;0.90;;
14247;SDS011;7208;49.826;6.004;2022-07-09T14:17:08;1.20;;;0.80;;
14247;SDS011;7208;49.826;6.004;2022-07-09T14:19:34;1.77;;;1.05;;
14247;SDS011;7208;49.826;6.004;2022-07-09T14:22:00;1.02;;;0.80;;
14247;SDS011;7208;49.826;6.004;2022-07-09T14:24:26;0.85;;;0.82;;
14247;SDS011;7208;49.826;6.004;2022-07-09T14:26:51;1.02;;;0.93;;
14247;SDS011;7208;49.826;6.004;2022-07-09T14:29:17;1.38;;;0.80;;
14247;SDS011;7208;49.826;6.004;2022-07-09T14:31:43;0.70;;;0.70;;
14247;SDS011;7208;49.826;6.004;2022-07-09T14:34:09;0.75;;;0.75;;
14247;SDS011;7208;49.826;6.004;2022-07-09T14:36:34;1.15;;;0.80;;
14247;SDS011;7208;49.826;6.004;2022-07-09T14:39:01;1.10;;;1.00;;
14247;SDS011;7208;49.826;6.004;2022-07-09T14:41:28;0.70;;;0.70;;
14247;SDS011;7208;49.826;6.004;2022-07-09T14:43:55;1.53;;;1.17;;
14247;SDS011;7208;49.826;6.004;2022-07-09T14:46:20;1.35;;;1.10;;
14247;SDS011;7208;49.826;6.004;2022-07-09T14:48:46;2.55;;;1.20;;
14247;SDS011;7208;49.826;6.004;2022-07-09T14:51:12;2.60;;;1.08;;
14247;SDS011;7208;49.826;6.004;2022-07-09T14:53:38;0.82;;;0.82;;
14247;SDS011;7208;49.826;6.004;2022-07-09T14:56:04;1.45;;;0.95;;
14247;SDS011;7208;49.826;6.004;2022-07-09T14:58:30;2.38;;;0.80;;
14247;SDS011;7208;49.826;6.004;2022-07-09T15:00:56;0.80;;;0.80;;
14247;SDS011;7208;49.826;6.004;2022-07-09T15:03:22;0.93;;;0.75;;
14247;SDS011;7208;49.826;6.004;2022-07-09T15:05:48;0.93;;;0.73;;
14247;SDS011;7208;49.826;6.004;2022-07-09T15:08:14;0.95;;;0.93;;
14247;SDS011;7208;49.826;6.004;2022-07-09T15:10:39;1.00;;;0.90;;
14247;SDS011;7208;49.826;6.004;2022-07-09T15:13:06;0.93;;;0.93;;
14247;SDS011;7208;49.826;6.004;2022-07-09T15:15:33;3.08;;;0.90;;
14247;SDS011;7208;49.826;6.004;2022-07-09T15:17:59;1.50;;;1.02;;